Time;durP1;ratioP1;P1;durP2;ratioP2;P2;SDS_P1;SDS_P2;PMS_P1;PMS_P2;Temp;Humidity;BMP_temperature;BMP_pressure;BME280_temperature;BME280_humidity;BME280_pressure;Samples;Min_cycle;Max_cycle;Signal;HPM_P1;HPM_P2
2021/06/10 00:01:03;;;;;;;12.80;6.78;;;21.90;69.10;;;;;;5072789;28;20020;-72
2021/06/10 00:03:29;;;;;;;12.02;6.65;;;21.80;69.10;;;;;;5072543;28;20393;-72
2021/06/10 00:05:55;;;;;;;10.35;6.65;;;21.80;69.10;;;;;;5072668;28;20063;-72
2021/06/10 00:08:21;;;;;;;11.95;7.40;;;21.70;69.60;;;;;;5054604;28;20115;-72
2021/06/10 00:10:47;;;;;;;12.05;6.95;;;21.80;69.10;;;;;;5072695;28;20016;-72
2021/06/10 00:13:15;;;;;;;10.57;7.88;;;21.90;69.00;;;;;;5072727;28;20358;-72
2021/06/10 00:15:41;;;;;;;12.13;7.18;;;21.90;69.20;;;;;;5072807;28;20048;-72
2021/06/10 00:18:07;;;;;;;11.30;6.97;;;21.90;69.00;;;;;;5072571;28;20458;-73
2021/06/10 00:20:35;;;;;;;12.18;6.93;;;21.90;69.10;;;;;;5072743;28;20017;-72
2021/06/10 00:23:02;;;;;;;9.10;7.53;;;22.00;68.90;;;;;;5065849;28;20060;-73
2021/06/10 00:25:28;;;;;;;8.20;6.93;;;22.10;68.90;;;;;;5072499;28;20020;-73
2021/06/10 00:27:55;;;;;;;12.40;8.32;;;22.20;68.50;;;;;;5072805;28;20021;-73
2021/06/10 00:30:21;;;;;;;9.18;7.80;;;22.00;68.80;;;;;;5073051;28;20483;-74
2021/06/10 00:32:49;;;;;;;11.07;7.53;;;21.90;68.70;;;;;;5072659;28;20033;-73
2021/06/10 00:35:16;;;;;;;9.10;7.50;;;21.70;69.30;;;;;;5072867;28;20036;-72
2021/06/10 00:37:42;;;;;;;13.45;9.07;;;21.60;69.80;;;;;;5072533;28;20485;-73
2021/06/10 00:40:10;;;;;;;10.80;8.63;;;21.40;70.40;;;;;;5072471;28;20028;-73
2021/06/10 00:42:36;;;;;;;12.60;7.97;;;21.30;70.20;;;;;;5072458;28;20032;-74
2021/06/10 00:45:06;;;;;;;11.60;7.85;;;21.40;70.20;;;;;;5072534;28;20025;-73
2021/06/10 00:47:31;;;;;;;11.98;9.10;;;21.40;70.20;;;;;;5072455;28;20016;-73
2021/06/10 00:49:57;;;;;;;12.32;8.00;;;21.20;70.10;;;;;;5072562;28;20041;-73
2021/06/10 00:52:23;;;;;;;9.57;8.02;;;21.20;70.50;;;;;;5072369;28;20028;-73
2021/06/10 00:54:48;;;;;;;14.38;8.05;;;21.20;70.20;;;;;;5072421;28;20032;-73
2021/06/10 00:57:14;;;;;;;11.85;7.28;;;21.20;70.70;;;;;;5072377;28;20056;-73
2021/06/10 00:59:40;;;;;;;12.95;8.65;;;21.30;70.50;;;;;;5072346;28;20099;-72
2021/06/10 01:02:06;;;;;;;11.52;7.93;;;21.40;70.00;;;;;;5073494;28;20052;-73
2021/06/10 01:04:31;;;;;;;9.65;7.55;;;21.30;70.10;;;;;;5076931;28;20028;-72
2021/06/10 01:07:01;;;;;;;13.45;7.47;;;21.30;70.60;;;;;;5083840;28;20131;-74
2021/06/10 01:09:30;;;;;;;10.13;7.30;;;21.30;69.90;;;;;;5080274;28;20389;-72
2021/06/10 01:11:59;;;;;;;17.20;8.05;;;21.20;69.90;;;;;;5075806;28;20123;-72
2021/06/10 01:14:24;;;;;;;11.25;7.10;;;21.40;69.90;;;;;;5057827;28;20021;-73
2021/06/10 01:16:52;;;;;;;13.82;7.00;;;21.20;69.70;;;;;;5075803;28;20033;-72
2021/06/10 01:19:43;;;;;;;12.82;7.72;;;21.10;70.10;;;;;;5075652;28;20082;-72
2021/06/10 01:22:29;;;;;;;9.18;7.68;;;21.30;70.00;;;;;;5075452;28;20017;-71
2021/06/10 01:25:31;;;;;;;15.07;7.65;;;21.20;69.80;;;;;;5075595;28;20059;-73
2021/06/10 01:28:11;;;;;;;12.90;8.32;;;21.20;70.50;;;;;;5075678;28;20025;-72
2021/06/10 01:30:41;;;;;;;13.00;7.30;;;21.10;69.80;;;;;;5075439;28;20025;-73
2021/06/10 01:33:17;;;;;;;11.40;7.50;;;21.20;70.30;;;;;;5075491;28;20024;-73
2021/06/10 01:35:49;;;;;;;14.73;7.60;;;21.30;69.60;;;;;;5075445;28;20025;-73
2021/06/10 01:38:16;;;;;;;16.15;7.70;;;21.30;69.80;;;;;;5075410;28;20016;-73
2021/06/10 01:40:43;;;;;;;11.82;6.78;;;21.50;69.50;;;;;;5075411;28;20024;-74
2021/06/10 01:43:10;;;;;;;11.98;7.70;;;21.50;69.20;;;;;;5075345;28;20154;-73
2021/06/10 01:45:37;;;;;;;13.45;7.25;;;21.40;68.90;;;;;;5075092;28;20481;-72
2021/06/10 01:48:03;;;;;;;11.70;7.28;;;21.40;69.40;;;;;;5075321;28;20025;-74
2021/06/10 01:50:30;;;;;;;13.15;7.57;;;21.50;69.10;;;;;;5057545;28;20119;-73
2021/06/10 01:52:56;;;;;;;11.57;7.32;;;21.50;68.70;;;;;;5075806;28;20036;-72
2021/06/10 01:55:25;;;;;;;13.30;7.40;;;21.40;68.90;;;;;;5076627;28;20024;-73
2021/06/10 01:57:52;;;;;;;9.45;7.40;;;21.40;69.20;;;;;;5075858;28;20024;-72
2021/06/10 02:00:19;;;;;;;16.10;7.57;;;21.30;69.00;;;;;;5074744;28;20400;-72
2021/06/10 02:02:46;;;;;;;10.77;7.38;;;21.20;69.30;;;;;;5074657;28;20544;-73
2021/06/10 02:05:13;;;;;;;11.75;7.82;;;21.20;69.00;;;;;;5056703;28;20527;-73
2021/06/10 02:07:41;;;;;;;9.65;7.32;;;21.10;69.30;;;;;;5074807;28;20063;-73
2021/06/10 02:10:10;;;;;;;15.40;7.32;;;20.90;69.20;;;;;;5074831;28;20059;-73
2021/06/10 02:12:36;;;;;;;12.75;7.60;;;20.80;69.60;;;;;;5074341;28;20072;-72
2021/06/10 02:15:06;;;;;;;10.93;6.82;;;20.70;69.80;;;;;;5074632;28;20354;-73
2021/06/10 02:17:32;;;;;;;12.00;6.88;;;20.70;69.60;;;;;;5074433;28;20377;-73
2021/06/10 02:19:58;;;;;;;9.70;7.03;;;20.70;69.60;;;;;;5074338;28;20039;-73
2021/06/10 02:22:23;;;;;;;12.82;7.43;;;20.90;69.80;;;;;;5074240;28;20397;-73
2021/06/10 02:24:50;;;;;;;14.15;7.68;;;21.10;69.10;;;;;;5074411;28;20430;-73
2021/06/10 02:27:16;;;;;;;12.00;7.35;;;21.20;68.90;;;;;;5073962;28;20167;-74
2021/06/10 02:29:43;;;;;;;11.43;7.50;;;21.30;68.50;;;;;;5074579;28;20103;-72
2021/06/10 02:32:10;;;;;;;12.02;7.38;;;21.30;69.10;;;;;;5073984;28;20043;-72
2021/06/10 02:34:36;;;;;;;10.73;7.43;;;21.20;68.50;;;;;;5074043;28;20056;-72
2021/06/10 02:37:02;;;;;;;12.93;7.50;;;21.20;68.60;;;;;;5074216;28;20044;-72
2021/06/10 02:39:29;;;;;;;10.32;7.53;;;21.20;68.50;;;;;;5074048;28;20062;-74
2021/06/10 02:41:56;;;;;;;11.02;7.53;;;21.30;68.30;;;;;;5073964;28;20104;-73
2021/06/10 02:44:26;;;;;;;13.02;7.53;;;21.40;68.10;;;;;;5074082;28;20465;-73
2021/06/10 02:46:53;;;;;;;10.85;7.13;;;21.30;68.10;;;;;;5073970;28;20107;-73
2021/06/10 02:49:20;;;;;;;10.45;6.95;;;21.30;68.20;;;;;;5074264;28;20366;-73
2021/06/10 02:51:48;;;;;;;13.75;7.28;;;21.40;67.80;;;;;;5073630;28;20470;-73
2021/06/10 02:54:20;;;;;;;10.15;7.35;;;21.40;67.50;;;;;;5056148;28;20032;-74
2021/06/10 02:56:46;;;;;;;12.73;7.22;;;21.30;68.00;;;;;;5073684;28;20032;-72
2021/06/10 02:59:16;;;;;;;10.73;7.55;;;21.40;68.10;;;;;;5073727;28;20465;-72
2021/06/10 03:01:44;;;;;;;13.10;7.45;;;21.50;67.90;;;;;;5073529;28;20040;-72
2021/06/10 03:04:14;;;;;;;12.60;8.30;;;21.50;67.50;;;;;;5073634;28;20488;-74
2021/06/10 03:06:40;;;;;;;12.90;7.70;;;21.20;67.70;;;;;;5072259;28;20041;-72
2021/06/10 03:09:07;;;;;;;11.57;7.82;;;21.10;68.10;;;;;;5073634;28;20021;-73
2021/06/10 03:11:37;;;;;;;11.55;7.68;;;20.90;68.40;;;;;;5073378;28;20051;-72
2021/06/10 03:14:03;;;;;;;12.05;7.43;;;21.00;68.90;;;;;;5073554;28;20055;-73
2021/06/10 03:16:29;;;;;;;11.35;7.57;;;20.90;68.60;;;;;;5073195;28;20028;-72
2021/06/10 03:18:56;;;;;;;17.20;8.15;;;20.80;68.60;;;;;;5038784;28;20032;-72
2021/06/10 03:21:24;;;;;;;13.85;7.78;;;20.80;68.80;;;;;;5073072;28;20460;-72
2021/06/10 03:23:51;;;;;;;16.38;8.07;;;20.60;69.00;;;;;;5072886;28;20490;-73
2021/06/10 03:26:20;;;;;;;12.10;7.68;;;20.60;69.00;;;;;;5072959;28;20025;-72
2021/06/10 03:28:47;;;;;;;12.30;8.00;;;20.60;69.30;;;;;;5073075;28;20029;-72
2021/06/10 03:31:13;;;;;;;11.13;7.63;;;20.60;69.00;;;;;;5073252;28;20052;-72
2021/06/10 03:33:39;;;;;;;17.67;8.13;;;20.60;69.10;;;;;;5072991;28;20130;-72
2021/06/10 03:36:08;;;;;;;11.30;7.95;;;20.70;68.90;;;;;;5073024;28;20052;-74
2021/06/10 03:38:34;;;;;;;10.43;7.45;;;20.80;68.60;;;;;;5073001;28;20021;-72
2021/06/10 03:41:01;;;;;;;12.57;7.85;;;20.90;68.90;;;;;;5073056;28;20028;-73
2021/06/10 03:43:27;;;;;;;18.33;7.18;;;21.00;68.40;;;;;;5073329;28;20096;-73
2021/06/10 03:45:54;;;;;;;14.73;8.27;;;20.90;68.40;;;;;;5073098;28;20104;-73
2021/06/10 03:48:19;;;;;;;15.13;8.25;;;20.80;68.70;;;;;;5073248;28;20470;-72
2021/06/10 03:50:47;;;;;;;15.57;8.35;;;20.60;68.70;;;;;;5073215;28;20117;-74
2021/06/10 03:53:12;;;;;;;12.10;7.88;;;20.50;68.80;;;;;;5073211;28;20084;-71
2021/06/10 03:55:39;;;;;;;10.05;7.75;;;20.40;69.10;;;;;;5072947;28;20029;-73
2021/06/10 03:58:05;;;;;;;10.88;7.85;;;20.40;69.10;;;;;;5073388;28;20112;-73
2021/06/10 04:00:31;;;;;;;12.18;7.68;;;20.50;69.10;;;;;;5073009;28;20056;-72
2021/06/10 04:02:58;;;;;;;13.35;7.40;;;20.60;69.10;;;;;;5073055;28;20020;-72
2021/06/10 04:05:27;;;;;;;14.57;7.57;;;20.60;69.10;;;;;;5072993;28;20460;-74
2021/06/10 04:07:57;;;;;;;9.63;7.50;;;20.70;69.50;;;;;;5072799;28;20032;-73
2021/06/10 04:10:24;;;;;;;11.10;7.20;;;20.70;68.70;;;;;;5072868;28;20032;-72
2021/06/10 04:12:50;;;;;;;10.02;7.70;;;20.80;68.80;;;;;;5072666;28;20465;-71
2021/06/10 04:15:17;;;;;;;14.90;8.15;;;21.10;68.20;;;;;;5072802;28;20035;-72
2021/06/10 04:17:44;;;;;;;10.45;6.78;;;21.20;67.90;;;;;;5072573;28;20146;-73
2021/06/10 04:20:11;;;;;;;11.23;7.70;;;21.30;67.50;;;;;;5072583;28;20024;-72
2021/06/10 04:22:37;;;;;;;11.35;7.60;;;21.60;67.00;;;;;;5072628;28;20488;-72
2021/06/10 04:25:03;;;;;;;15.07;7.55;;;21.80;66.40;;;;;;5072620;28;20028;-72
2021/06/10 04:27:29;;;;;;;11.90;8.68;;;21.80;66.30;;;;;;5072482;28;20028;-73
2021/06/10 04:29:55;;;;;;;12.32;7.72;;;21.80;66.20;;;;;;5072610;28;20025;-72
2021/06/10 04:32:20;;;;;;;12.45;8.20;;;21.70;66.50;;;;;;5072436;28;20039;-73
2021/06/10 04:34:46;;;;;;;13.88;8.50;;;21.90;66.50;;;;;;5072411;28;20024;-73
2021/06/10 04:37:12;;;;;;;10.75;7.70;;;21.70;66.10;;;;;;5073765;28;20059;-73
2021/06/10 04:39:37;;;;;;;12.02;7.90;;;21.50;66.50;;;;;;5076317;28;20109;-73
2021/06/10 04:42:03;;;;;;;11.25;7.80;;;21.60;66.70;;;;;;5058281;28;20376;-74
2021/06/10 04:44:29;;;;;;;14.50;9.02;;;21.80;66.20;;;;;;5076327;28;20027;-75
2021/06/10 04:46:55;;;;;;;13.43;8.63;;;21.90;66.40;;;;;;5076177;28;20020;-74
2021/06/10 04:49:21;;;;;;;11.40;8.48;;;22.00;66.20;;;;;;5076341;28;20029;-72
2021/06/10 04:51:47;;;;;;;13.88;8.45;;;22.00;66.10;;;;;;5076125;28;20032;-73
2021/06/10 04:54:12;;;;;;;12.55;8.40;;;22.00;66.00;;;;;;5058241;28;20032;-73
2021/06/10 04:56:38;;;;;;;15.20;9.27;;;21.90;66.00;;;;;;5075979;28;20471;-73
2021/06/10 04:59:04;;;;;;;20.83;9.25;;;21.90;66.20;;;;;;5076129;28;20060;-72
2021/06/10 05:01:30;;;;;;;13.75;8.63;;;21.80;66.30;;;;;;5076065;28;20062;-72
2021/06/10 05:03:57;;;;;;;13.00;8.88;;;21.70;66.50;;;;;;5075908;28;20032;-72
2021/06/10 05:06:23;;;;;;;10.68;8.38;;;21.80;65.20;;;;;;5075779;28;20016;-72
2021/06/10 05:08:50;;;;;;;9.68;7.93;;;21.90;66.20;;;;;;5075786;28;20029;-73
2021/06/10 05:11:16;;;;;;;11.73;7.68;;;21.90;65.80;;;;;;5075852;28;20055;-74
2021/06/10 05:13:42;;;;;;;15.02;8.50;;;21.90;65.50;;;;;;5075702;28;20458;-73
2021/06/10 05:16:08;;;;;;;11.50;7.85;;;21.80;65.50;;;;;;5075674;28;20024;-74
2021/06/10 05:18:34;;;;;;;13.05;8.18;;;21.90;65.40;;;;;;5075663;28;20046;-74
2021/06/10 05:21:00;;;;;;;11.65;8.20;;;22.20;65.00;;;;;;5075942;28;20028;-74
2021/06/10 05:23:26;;;;;;;10.52;7.07;;;22.40;64.50;;;;;;5075540;28;20052;-74
2021/06/10 05:25:51;;;;;;;13.15;8.15;;;22.60;64.00;;;;;;5075689;28;20465;-73
2021/06/10 05:28:17;;;;;;;11.48;7.88;;;23.00;63.50;;;;;;5075871;28;20031;-73
2021/06/10 05:30:43;;;;;;;17.05;7.43;;;23.20;63.00;;;;;;5075620;28;20475;-73
2021/06/10 05:33:08;;;;;;;15.07;7.90;;;23.40;62.20;;;;;;5075570;28;20033;-73
2021/06/10 05:35:34;;;;;;;11.30;7.00;;;23.40;62.20;;;;;;5075350;28;20020;-73
2021/06/10 05:38:00;;;;;;;12.25;7.80;;;23.50;62.10;;;;;;5057245;28;20469;-73
2021/06/10 05:40:25;;;;;;;16.38;7.97;;;23.80;61.80;;;;;;5057151;28;20048;-74
2021/06/10 05:42:51;;;;;;;16.45;8.05;;;24.00;61.40;;;;;;5074976;28;20057;-72
2021/06/10 05:45:17;;;;;;;15.20;7.65;;;24.40;60.80;;;;;;5057148;28;20044;-73
2021/06/10 05:47:42;;;;;;;16.45;8.60;;;24.50;60.10;;;;;;5074616;28;20028;-72
2021/06/10 05:50:08;;;;;;;12.13;7.80;;;24.80;60.00;;;;;;5075084;28;20517;-73
2021/06/10 05:52:35;;;;;;;17.17;7.55;;;24.80;59.50;;;;;;5075200;28;20039;-72
2021/06/10 05:55:00;;;;;;;11.98;6.97;;;24.80;59.30;;;;;;5063570;28;20108;-72
2021/06/10 05:57:26;;;;;;;12.07;7.15;;;24.90;59.00;;;;;;5054400;28;20537;-73
2021/06/10 05:59:52;;;;;;;13.88;7.25;;;25.00;58.60;;;;;;5054190;28;20116;-72
2021/06/10 06:02:17;;;;;;;15.15;6.90;;;25.10;58.50;;;;;;5065891;28;20025;-71
2021/06/10 06:04:43;;;;;;;12.13;6.75;;;25.10;58.50;;;;;;5055882;28;20420;-71
2021/06/10 06:07:09;;;;;;;14.57;7.65;;;25.20;58.40;;;;;;5074189;28;20036;-70
2021/06/10 06:09:36;;;;;;;11.82;7.32;;;25.10;58.30;;;;;;5073855;28;20020;-72
2021/06/10 06:12:03;;;;;;;13.20;7.30;;;25.20;58.30;;;;;;5073670;28;20064;-74
2021/06/10 06:14:33;;;;;;;18.17;7.32;;;25.40;58.30;;;;;;5064577;28;20531;-72
2021/06/10 06:17:04;;;;;;;14.77;7.22;;;25.70;57.90;;;;;;5053748;28;20029;-72
2021/06/10 06:19:31;;;;;;;12.88;7.05;;;25.70;57.50;;;;;;5054128;28;20029;-74
2021/06/10 06:21:56;;;;;;;15.55;7.18;;;26.00;57.20;;;;;;5053979;28;20456;-71
2021/06/10 06:24:22;;;;;;;13.45;7.35;;;26.20;56.80;;;;;;5053701;28;20068;-74
2021/06/10 06:26:48;;;;;;;10.82;7.18;;;26.30;56.60;;;;;;5054109;28;20029;-71
2021/06/10 06:29:14;;;;;;;14.10;7.93;;;26.50;56.30;;;;;;5054109;28;20454;-70
2021/06/10 06:31:40;;;;;;;11.57;7.82;;;26.50;56.10;;;;;;5054480;28;20043;-71
2021/06/10 06:34:09;;;;;;;15.95;7.20;;;26.70;55.90;;;;;;5037297;28;20112;-72
2021/06/10 06:36:35;;;;;;;10.65;7.47;;;26.70;55.20;;;;;;5053752;28;20090;-74
2021/06/10 06:39:00;;;;;;;11.63;7.30;;;26.60;55.50;;;;;;5054128;28;20387;-70
2021/06/10 06:41:26;;;;;;;12.45;6.68;;;26.80;55.20;;;;;;5053717;28;20034;-70
2021/06/10 06:43:52;;;;;;;13.23;7.28;;;26.80;55.30;;;;;;5053542;28;20100;-71
2021/06/10 06:46:18;;;;;;;16.13;7.10;;;27.20;54.50;;;;;;5052920;28;20083;-71
2021/06/10 06:48:43;;;;;;;18.65;7.75;;;27.30;54.30;;;;;;5053455;28;20448;-70
2021/06/10 06:51:09;;;;;;;13.77;6.40;;;27.30;54.00;;;;;;5035693;28;20025;-70
2021/06/10 06:53:35;;;;;;;10.05;6.10;;;27.30;53.30;;;;;;5053582;28;20037;-70
2021/06/10 06:56:02;;;;;;;14.30;6.97;;;27.20;53.20;;;;;;5053337;28;20029;-70
2021/06/10 06:58:28;;;;;;;11.85;6.93;;;27.30;53.00;;;;;;5053787;28;20017;-73
2021/06/10 07:00:54;;;;;;;12.60;6.25;;;27.40;52.80;;;;;;5052506;28;20079;-74
2021/06/10 07:03:21;;;;;;;12.55;6.32;;;27.40;52.60;;;;;;5053275;28;20025;-71
2021/06/10 07:05:47;;;;;;;13.02;6.38;;;27.50;52.30;;;;;;5052865;28;20040;-74
2021/06/10 07:08:14;;;;;;;11.18;6.32;;;27.20;52.50;;;;;;5053423;28;20025;-72
2021/06/10 07:10:40;;;;;;;9.80;5.95;;;27.20;52.40;;;;;;5052910;28;20028;-73
2021/06/10 07:13:06;;;;;;;12.85;6.38;;;27.20;52.20;;;;;;5052619;28;20033;-73
2021/06/10 07:15:32;;;;;;;11.73;7.18;;;27.30;52.20;;;;;;5052869;28;20025;-75
2021/06/10 07:17:58;;;;;;;11.43;7.20;;;27.40;51.80;;;;;;5052960;28;20032;-73
2021/06/10 07:20:24;;;;;;;16.60;7.45;;;27.20;52.00;;;;;;5053072;28;20029;-71
2021/06/10 07:22:50;;;;;;;11.60;6.57;;;27.30;52.60;;;;;;5052652;28;20037;-72
2021/06/10 07:25:16;;;;;;;11.80;7.03;;;27.40;52.70;;;;;;5035442;28;20037;-75
2021/06/10 07:27:43;;;;;;;11.02;6.65;;;27.70;52.80;;;;;;5053437;28;20490;-74
2021/06/10 07:30:10;;;;;;;11.75;6.45;;;27.70;51.70;;;;;;5053256;28;20024;-73
2021/06/10 07:32:35;;;;;;;11.85;6.10;;;27.90;50.70;;;;;;5035453;28;20047;-74
2021/06/10 07:35:02;;;;;;;11.18;6.63;;;27.80;51.20;;;;;;5053570;28;20021;-73
2021/06/10 07:37:28;;;;;;;10.00;6.18;;;27.70;51.60;;;;;;5053406;28;20037;-78
2021/06/10 07:39:55;;;;;;;10.30;5.82;;;27.70;51.30;;;;;;5053336;28;20371;-72
2021/06/10 07:42:21;;;;;;;13.90;6.38;;;27.70;50.40;;;;;;5053381;28;20104;-72
2021/06/10 07:44:47;;;;;;;11.85;6.88;;;27.80;52.00;;;;;;5053355;28;20513;-73
2021/06/10 07:47:14;;;;;;;14.00;6.75;;;27.90;51.80;;;;;;5035572;28;20051;-73
2021/06/10 07:49:41;;;;;;;12.85;5.95;;;27.90;50.30;;;;;;5054043;28;20532;-84
2021/06/10 07:52:07;;;;;;;11.93;6.40;;;27.80;52.20;;;;;;5054157;28;20104;-82
2021/06/10 07:54:33;;;;;;;84.97;12.38;;;27.80;51.50;;;;;;5054320;28;20405;-79
2021/06/10 07:57:00;;;;;;;60.65;11.98;;;27.70;51.30;;;;;;5053258;28;20461;-79
2021/06/10 07:59:26;;;;;;;24.98;7.88;;;27.70;50.60;;;;;;5054093;28;20190;-78
2021/06/10 08:01:55;;;;;;;18.23;6.55;;;27.60;51.40;;;;;;5053938;28;20067;-75
2021/06/10 08:04:22;;;;;;;17.45;6.78;;;27.60;51.60;;;;;;5054077;28;20469;-77
2021/06/10 08:06:48;;;;;;;13.10;6.55;;;27.60;51.60;;;;;;5053758;28;20044;-80
2021/06/10 08:09:15;;;;;;;12.57;5.78;;;27.60;51.60;;;;;;5036205;28;20037;-77
2021/06/10 08:11:43;;;;;;;14.95;6.28;;;27.70;51.40;;;;;;5056917;28;20028;-79
2021/06/10 08:14:09;;;;;;;11.88;6.50;;;27.70;50.40;;;;;;5040624;28;20033;-77
2021/06/10 08:16:38;;;;;;;15.25;6.60;;;27.70;52.20;;;;;;5057986;28;20070;-80
2021/06/10 08:19:04;;;;;;;11.93;6.03;;;27.70;52.00;;;;;;5058154;28;20029;-78
2021/06/10 08:21:30;;;;;;;9.98;5.78;;;27.60;51.90;;;;;;5057568;28;20017;-80
2021/06/10 08:23:57;;;;;;;10.50;6.38;;;27.60;51.80;;;;;;5056668;28;20072;-79
2021/06/10 08:26:23;;;;;;;13.50;6.30;;;27.60;51.70;;;;;;5056987;28;20025;-80
2021/06/10 08:28:49;;;;;;;20.23;6.95;;;27.50;52.10;;;;;;5056554;28;20032;-78
2021/06/10 08:31:18;;;;;;;9.60;5.78;;;27.40;52.30;;;;;;5056296;28;20513;-77
2021/06/10 08:33:44;;;;;;;13.05;6.40;;;27.20;50.90;;;;;;5039059;28;20068;-77
2021/06/10 08:36:11;;;;;;;12.80;5.68;;;27.10;51.70;;;;;;5055659;28;20114;-79
2021/06/10 08:38:38;;;;;;;11.38;6.22;;;27.10;51.60;;;;;;5037931;28;20599;-77
2021/06/10 08:41:05;;;;;;;9.48;5.80;;;27.10;51.20;;;;;;5056610;28;20374;-78
2021/06/10 08:43:33;;;;;;;11.70;5.55;;;27.10;51.70;;;;;;5056603;28;20021;-77
2021/06/10 08:46:02;;;;;;;10.73;5.05;;;27.10;51.50;;;;;;5058419;28;20029;-76
2021/06/10 08:48:34;;;;;;;14.52;5.45;;;27.10;51.50;;;;;;5058162;28;20021;-74
2021/06/10 08:51:00;;;;;;;10.45;5.72;;;27.00;51.40;;;;;;5057866;28;20107;-76
2021/06/10 08:53:27;;;;;;;18.15;7.68;;;27.00;51.10;;;;;;5057997;28;20084;-76
2021/06/10 08:55:57;;;;;;;11.80;6.15;;;27.10;51.20;;;;;;5056020;28;20079;-80
2021/06/10 08:58:25;;;;;;;8.63;5.50;;;27.10;51.30;;;;;;5056159;28;20025;-79
2021/06/10 09:00:52;;;;;;;10.02;5.93;;;27.20;51.20;;;;;;5055586;28;20083;-77
2021/06/10 09:03:23;;;;;;;7.60;5.10;;;27.30;51.10;;;;;;5037770;28;20060;-80
2021/06/10 09:06:10;;;;;;;9.05;4.88;;;27.30;50.80;;;;;;5055324;28;20025;-80
2021/06/10 09:08:40;;;;;;;7.55;5.57;;;27.20;50.80;;;;;;5055272;28;20409;-81
2021/06/10 09:11:19;;;;;;;16.38;5.80;;;27.20;50.50;;;;;;5052623;28;20037;-78
2021/06/10 09:13:55;;;;;;;8.77;5.35;;;27.20;48.90;;;;;;5055201;28;20036;-77
2021/06/10 09:16:35;;;;;;;11.50;5.63;;;27.10;50.70;;;;;;5055461;28;20024;-77
2021/06/10 09:19:12;;;;;;;10.90;5.53;;;27.10;49.20;;;;;;5055468;28;20111;-80
2021/06/10 09:21:44;;;;;;;9.57;5.40;;;27.10;49.10;;;;;;5055355;28;20019;-79
2021/06/10 09:24:19;;;;;;;9.73;5.40;;;27.20;49.40;;;;;;5054265;28;20103;-79
2021/06/10 09:26:47;;;;;;;11.07;5.85;;;27.20;50.40;;;;;;5055133;28;20055;-80
2021/06/10 09:29:12;;;;;;;10.57;5.90;;;27.30;50.50;;;;;;5055288;28;20048;-78
2021/06/10 09:31:41;;;;;;;12.65;5.72;;;27.40;50.20;;;;;;5054829;28;20474;-81
2021/06/10 09:34:12;;;;;;;11.80;5.65;;;27.40;50.30;;;;;;5055105;28;20029;-81
2021/06/10 09:36:42;;;;;;;8.98;5.70;;;27.40;50.40;;;;;;5055152;28;20485;-77
2021/06/10 09:39:14;;;;;;;9.10;5.43;;;27.50;50.30;;;;;;5054985;28;20025;-81
2021/06/10 09:42:08;;;;;;;12.88;5.68;;;27.50;50.30;;;;;;5055212;28;20028;-84
2021/06/10 09:44:50;;;;;;;11.48;6.47;;;27.60;48.70;;;;;;5038322;28;20057;-82
2021/06/10 09:47:17;;;;;;;10.70;5.63;;;27.70;50.50;;;;;;5054873;28;20027;-82
2021/06/10 09:49:43;;;;;;;21.13;6.18;;;27.70;49.30;;;;;;5055182;28;20439;-81
2021/06/10 09:52:10;;;;;;;12.27;5.95;;;27.70;50.70;;;;;;5037765;28;20116;-80
2021/06/10 09:54:43;;;;;;;11.65;5.93;;;27.70;48.90;;;;;;5055569;28;20096;-84
2021/06/10 09:57:13;;;;;;;11.65;6.00;;;27.80;50.30;;;;;;5055893;28;20528;-81
2021/06/10 09:59:50;;;;;;;9.63;5.63;;;27.80;50.00;;;;;;5058476;28;20031;-81
2021/06/10 10:02:19;;;;;;;13.95;5.20;;;27.90;48.20;;;;;;5055690;28;20124;-82
2021/06/10 10:05:07;;;;;;;7.22;4.93;;;28.00;47.70;;;;;;5036969;28;20029;-85
2021/06/10 10:07:35;;;;;;;10.23;5.97;;;28.10;49.10;;;;;;5055446;28;20040;-80
2021/06/10 10:10:03;;;;;;;10.05;5.75;;;28.20;49.50;;;;;;5038613;28;20393;-82
2021/06/10 10:12:30;;;;;;;11.43;5.78;;;28.20;49.30;;;;;;5054925;28;20032;-78
2021/06/10 10:14:58;;;;;;;9.55;4.97;;;28.30;49.00;;;;;;5055399;28;20101;-85
2021/06/10 10:17:30;;;;;;;9.00;5.30;;;28.30;48.30;;;;;;5055216;28;20367;-82
2021/06/10 10:19:56;;;;;;;12.05;5.68;;;28.30;47.10;;;;;;5055257;28;20075;-80
2021/06/10 10:22:23;;;;;;;11.88;5.53;;;28.30;48.30;;;;;;5054225;28;20423;-81
2021/06/10 10:24:54;;;;;;;9.80;5.80;;;28.40;48.30;;;;;;5054914;28;20043;-82
2021/06/10 10:27:21;;;;;;;22.48;6.32;;;28.40;48.00;;;;;;5055222;28;20077;-79
2021/06/10 10:29:48;;;;;;;12.45;5.60;;;28.40;48.50;;;;;;5038168;28;20091;-81
2021/06/10 10:32:26;;;;;;;8.05;4.82;;;28.40;47.90;;;;;;5054720;28;20044;-80
2021/06/10 10:34:52;;;;;;;12.50;4.80;;;28.50;46.30;;;;;;5053236;28;20485;-78
2021/06/10 10:37:21;;;;;;;7.32;4.88;;;28.50;46.30;;;;;;5053566;28;20021;-77
2021/06/10 10:39:47;;;;;;;13.40;5.20;;;28.60;46.00;;;;;;5054248;28;20029;-77
2021/06/10 10:42:36;;;;;;;11.10;5.20;;;28.90;45.80;;;;;;5053721;28;20021;-77
2021/06/10 10:45:15;;;;;;;12.43;5.22;;;28.90;44.50;;;;;;5054395;28;20114;-72
2021/06/10 10:47:43;;;;;;;11.25;5.22;;;28.90;44.70;;;;;;5053518;28;20112;-69
2021/06/10 10:50:09;;;;;;;9.88;5.15;;;29.00;45.60;;;;;;5053296;28;20045;-77
2021/06/10 10:52:39;;;;;;;8.93;4.82;;;29.10;45.50;;;;;;5036085;28;20029;-79
2021/06/10 10:55:29;;;;;;;12.13;5.10;;;29.10;44.80;;;;;;5056101;28;20028;-82
2021/06/10 10:57:59;;;;;;;10.15;5.07;;;29.20;43.60;;;;;;5054294;28;20021;-77
2021/06/10 11:01:04;;;;;;;8.05;4.28;;;29.10;44.60;;;;;;5053466;28;20021;-72
2021/06/10 11:03:34;;;;;;;6.35;3.80;;;29.20;43.00;;;;;;4972341;28;20031;-79
2021/06/10 11:06:22;;;;;;;10.35;4.88;;;29.30;42.20;;;;;;5041294;28;20033;-78
2021/06/10 11:09:15;;;;;;;6.55;4.10;;;29.40;42.00;;;;;;5053672;28;20036;-80
2021/06/10 11:12:00;;;;;;;6.70;4.63;;;29.50;41.40;;;;;;5053624;28;20100;-78
2021/06/10 11:14:38;;;;;;;7.88;4.20;;;29.70;40.60;;;;;;5034867;28;20037;-80
2021/06/10 11:17:21;;;;;;;13.23;4.75;;;29.70;41.00;;;;;;5053453;28;20040;-80
2021/06/10 11:20:01;;;;;;;6.90;3.80;;;29.70;41.10;;;;;;5053908;28;20032;-81
2021/06/10 11:22:39;;;;;;;8.20;4.50;;;29.70;40.00;;;;;;5052721;28;20439;-80
2021/06/10 11:25:29;;;;;;;6.85;3.83;;;29.70;39.40;;;;;;5053229;28;20068;-81
2021/06/10 11:28:25;;;;;;;8.15;4.70;;;30.00;39.30;;;;;;5041904;28;20043;-80
2021/06/10 11:30:54;;;;;;;5.10;3.90;;;30.10;40.30;;;;;;5053410;28;20071;-79
2021/06/10 11:33:23;;;;;;;9.20;4.13;;;30.20;39.50;;;;;;5052890;28;20089;-78
2021/06/10 11:35:49;;;;;;;8.00;3.80;;;30.20;39.50;;;;;;5052952;28;20029;-79
2021/06/10 11:38:23;;;;;;;7.30;3.47;;;30.20;38.20;;;;;;5053091;28;20445;-81
2021/06/10 11:40:58;;;;;;;5.28;3.20;;;30.20;37.90;;;;;;5053185;28;20051;-81
2021/06/10 11:43:25;;;;;;;6.07;3.70;;;30.20;36.80;;;;;;5035068;28;20103;-78
2021/06/10 11:46:13;;;;;;;7.95;3.53;;;30.20;36.40;;;;;;5052408;28;20025;-81
2021/06/10 11:48:44;;;;;;;7.75;3.92;;;30.30;36.70;;;;;;5037007;28;20052;-75
2021/06/10 11:51:26;;;;;;;7.07;3.97;;;30.40;36.70;;;;;;5052549;28;20071;-77
2021/06/10 11:53:57;;;;;;;6.55;3.65;;;30.50;37.30;;;;;;5052686;28;20040;-77
2021/06/10 11:56:24;;;;;;;4.97;3.53;;;30.50;36.90;;;;;;5034472;28;20027;-76
2021/06/10 11:58:51;;;;;;;5.88;3.80;;;30.60;36.20;;;;;;5052587;28;20040;-77
2021/06/10 12:01:17;;;;;;;5.90;3.80;;;30.70;36.50;;;;;;5052729;28;20109;-78
2021/06/10 12:03:45;;;;;;;9.40;3.80;;;30.70;36.20;;;;;;5053146;28;20094;-84
2021/06/10 12:06:12;;;;;;;11.45;4.45;;;30.70;36.80;;;;;;5053807;28;20082;-81
2021/06/10 12:08:41;;;;;;;5.78;4.00;;;30.80;37.60;;;;;;5055233;28;20021;-86
2021/06/10 12:11:14;;;;;;;6.03;3.42;;;30.90;36.90;;;;;;5068640;28;20093;-81
2021/06/10 12:13:42;;;;;;;7.50;3.70;;;30.90;37.00;;;;;;5067126;28;20033;-82
2021/06/10 12:16:11;;;;;;;5.07;3.22;;;31.00;35.80;;;;;;5072762;28;20032;-81
2021/06/10 12:18:39;;;;;;;6.75;3.70;;;31.00;35.10;;;;;;5071875;28;20032;-82
2021/06/10 12:21:07;;;;;;;5.65;3.50;;;31.10;35.10;;;;;;5055041;28;20490;-82
2021/06/10 12:23:36;;;;;;;5.35;3.15;;;31.20;34.50;;;;;;5053064;28;20053;-80
2021/06/10 12:26:10;;;;;;;11.25;3.50;;;31.30;33.70;;;;;;5053209;28;20374;-81
2021/06/10 12:28:41;;;;;;;5.50;3.20;;;31.30;34.00;;;;;;5052592;28;20025;-78
2021/06/10 12:31:15;;;;;;;5.10;3.30;;;31.40;33.30;;;;;;5052611;28;20018;-79
2021/06/10 12:33:44;;;;;;;5.32;3.03;;;31.40;31.70;;;;;;5034834;28;20182;-84
2021/06/10 12:36:30;;;;;;;6.10;3.90;;;31.50;31.70;;;;;;5034951;28;20022;-82
2021/06/10 12:39:17;;;;;;;13.60;4.35;;;31.50;35.10;;;;;;5053106;28;20104;-84
2021/06/10 12:41:48;;;;;;;6.10;4.07;;;31.50;37.10;;;;;;5035079;28;20079;-80
2021/06/10 12:44:19;;;;;;;10.55;4.10;;;31.50;38.00;;;;;;5053262;28;20039;-83
2021/06/10 12:46:49;;;;;;;9.10;4.60;;;31.70;37.60;;;;;;5052531;28;20074;-83